sensor_id;sensor_type;location;lat;lon;timestamp;P1;durP1;ratioP1;P2;durP2;ratioP2
63953;SDS011;50128;52.094;5.232;2022-09-04T00:02:41;7.4;;;6.6;;
63953;SDS011;50128;52.094;5.232;2022-09-04T00:04:33;10.1;;;7.1;;
63953;SDS011;50128;52.094;5.232;2022-09-04T00:06:20;9.21;;;7.3;;
63953;SDS011;50128;52.094;5.232;2022-09-04T00:08:11;9.1;;;7.1;;
63953;SDS011;50128;52.094;5.232;2022-09-04T00:10:02;7.8;;;7.0;;
63953;SDS011;50128;52.094;5.232;2022-09-04T00:11:51;7.5;;;6.6;;
63953;SDS011;50128;52.094;5.232;2022-09-04T00:13:38;9.1;;;7.2;;
63953;SDS011;50128;52.094;5.232;2022-09-04T00:17:04;8.81;;;7.4;;
63953;SDS011;50128;52.094;5.232;2022-09-04T00:18:48;8.4;;;7.0;;
63953;SDS011;50128;52.094;5.232;2022-09-04T00:20:34;7.8;;;6.7;;
63953;SDS011;50128;52.094;5.232;2022-09-04T00:22:20;8.5;;;6.4;;
63953;SDS011;50128;52.094;5.232;2022-09-04T00:24:05;9.21;;;7.3;;
63953;SDS011;50128;52.094;5.232;2022-09-04T00:27:33;10.4;;;8.1;;
63953;SDS011;50128;52.094;5.232;2022-09-04T00:29:17;9.6;;;8.2;;
63953;SDS011;50128;52.094;5.232;2022-09-04T00:31:05;10.0;;;7.6;;
63953;SDS011;50128;52.094;5.232;2022-09-04T00:32:58;9.6;;;7.8;;
63953;SDS011;50128;52.094;5.232;2022-09-04T00:34:46;10.9;;;7.9;;
63953;SDS011;50128;52.094;5.232;2022-09-04T00:36:32;8.4;;;7.6;;
63953;SDS011;50128;52.094;5.232;2022-09-04T00:39:57;8.81;;;7.9;;
63953;SDS011;50128;52.094;5.232;2022-09-04T00:41:42;9.4;;;8.4;;
63953;SDS011;50128;52.094;5.232;2022-09-04T00:43:54;10.1;;;9.0;;
63953;SDS011;50128;52.094;5.232;2022-09-04T00:46:50;10.4;;;8.81;;
63953;SDS011;50128;52.094;5.232;2022-09-04T00:49:59;9.71;;;8.71;;
63953;SDS011;50128;52.094;5.232;2022-09-04T00:52:00;9.4;;;8.4;;
63953;SDS011;50128;52.094;5.232;2022-09-04T00:53:52;10.1;;;9.0;;
63953;SDS011;50128;52.094;5.232;2022-09-04T00:56:23;9.71;;;8.71;;
63953;SDS011;50128;52.094;5.232;2022-09-04T00:59:58;9.6;;;8.6;;
63953;SDS011;50128;52.094;5.232;2022-09-04T01:01:43;11.3;;;9.9;;
63953;SDS011;50128;52.094;5.232;2022-09-04T01:05:26;10.6;;;9.5;;
63953;SDS011;50128;52.094;5.232;2022-09-04T01:07:25;12.0;;;9.71;;
63953;SDS011;50128;52.094;5.232;2022-09-04T01:09:22;10.6;;;9.6;;
63953;SDS011;50128;52.094;5.232;2022-09-04T01:11:42;14.3;;;10.4;;
63953;SDS011;50128;52.094;5.232;2022-09-04T01:13:34;10.9;;;9.81;;
63953;SDS011;50128;52.094;5.232;2022-09-04T01:15:17;11.6;;;10.5;;
63953;SDS011;50128;52.094;5.232;2022-09-04T01:17:03;11.9;;;10.8;;
63953;SDS011;50128;52.094;5.232;2022-09-04T01:18:48;12.2;;;10.9;;
63953;SDS011;50128;52.094;5.232;2022-09-04T01:20:40;12.4;;;11.2;;
63953;SDS011;50128;52.094;5.232;2022-09-04T01:22:47;12.7;;;11.5;;
63953;SDS011;50128;52.094;5.232;2022-09-04T01:24:40;13.0;;;11.6;;
63953;SDS011;50128;52.094;5.232;2022-09-04T01:26:39;12.8;;;11.5;;
63953;SDS011;50128;52.094;5.232;2022-09-04T01:30:06;13.2;;;11.9;;
63953;SDS011;50128;52.094;5.232;2022-09-04T01:31:47;12.8;;;11.5;;
63953;SDS011;50128;52.094;5.232;2022-09-04T01:33:43;12.9;;;11.7;;
63953;SDS011;50128;52.094;5.232;2022-09-04T01:35:29;12.7;;;11.5;;
63953;SDS011;50128;52.094;5.232;2022-09-04T01:37:18;12.2;;;11.0;;
63953;SDS011;50128;52.094;5.232;2022-09-04T01:39:15;12.1;;;10.9;;
63953;SDS011;50128;52.094;5.232;2022-09-04T01:42:42;12.0;;;10.9;;
63953;SDS011;50128;52.094;5.232;2022-09-04T01:44:24;12.9;;;11.3;;
63953;SDS011;50128;52.094;5.232;2022-09-04T01:46:09;12.4;;;11.2;;
63953;SDS011;50128;52.094;5.232;2022-09-04T01:48:09;12.0;;;10.8;;
63953;SDS011;50128;52.094;5.232;2022-09-04T01:49:53;13.2;;;11.9;;
63953;SDS011;50128;52.094;5.232;2022-09-04T01:53:23;12.2;;;11.0;;
63953;SDS011;50128;52.094;5.232;2022-09-04T01:55:04;12.4;;;11.2;;
63953;SDS011;50128;52.094;5.232;2022-09-04T01:56:51;12.9;;;11.5;;
63953;SDS011;50128;52.094;5.232;2022-09-04T01:58:42;12.2;;;10.9;;
63953;SDS011;50128;52.094;5.232;2022-09-04T02:00:27;13.3;;;11.7;;
63953;SDS011;50128;52.094;5.232;2022-09-04T02:03:56;12.6;;;11.3;;
63953;SDS011;50128;52.094;5.232;2022-09-04T02:05:52;13.0;;;11.7;;
63953;SDS011;50128;52.094;5.232;2022-09-04T02:07:37;14.3;;;11.6;;
63953;SDS011;50128;52.094;5.232;2022-09-04T02:09:25;12.5;;;11.3;;
63953;SDS011;50128;52.094;5.232;2022-09-04T02:11:11;13.0;;;11.7;;
63953;SDS011;50128;52.094;5.232;2022-09-04T02:12:53;13.2;;;11.9;;
63953;SDS011;50128;52.094;5.232;2022-09-04T02:16:36;14.7;;;13.2;;
63953;SDS011;50128;52.094;5.232;2022-09-04T02:18:24;12.5;;;11.3;;
63953;SDS011;50128;52.094;5.232;2022-09-04T02:20:18;13.3;;;12.1;;
63953;SDS011;50128;52.094;5.232;2022-09-04T02:22:02;12.6;;;11.4;;
63953;SDS011;50128;52.094;5.232;2022-09-04T02:23:53;14.5;;;12.1;;
63953;SDS011;50128;52.094;5.232;2022-09-04T02:25:40;13.8;;;12.5;;
63953;SDS011;50128;52.094;5.232;2022-09-04T02:27:24;12.9;;;11.6;;
63953;SDS011;50128;52.094;5.232;2022-09-04T02:31:09;13.1;;;11.5;;
63953;SDS011;50128;52.094;5.232;2022-09-04T02:32:55;12.9;;;11.6;;
63953;SDS011;50128;52.094;5.232;2022-09-04T02:34:41;13.0;;;11.7;;
63953;SDS011;50128;52.094;5.232;2022-09-04T02:36:26;13.6;;;12.0;;
63953;SDS011;50128;52.094;5.232;2022-09-04T02:38:12;13.2;;;11.8;;
63953;SDS011;50128;52.094;5.232;2022-09-04T02:40:01;14.5;;;12.3;;
63953;SDS011;50128;52.094;5.232;2022-09-04T02:43:43;13.1;;;11.8;;
63953;SDS011;50128;52.094;5.232;2022-09-04T02:45:36;13.8;;;12.3;;
63953;SDS011;50128;52.094;5.232;2022-09-04T02:47:22;12.4;;;11.1;;
63953;SDS011;50128;52.094;5.232;2022-09-04T02:49:08;13.7;;;12.4;;
63953;SDS011;50128;52.094;5.232;2022-09-04T02:50:56;13.8;;;12.4;;
63953;SDS011;50128;52.094;5.232;2022-09-04T02:53:06;13.5;;;12.2;;
63953;SDS011;50128;52.094;5.232;2022-09-04T02:55:10;13.9;;;12.1;;
63953;SDS011;50128;52.094;5.232;2022-09-04T02:57:00;13.6;;;12.2;;
63953;SDS011;50128;52.094;5.232;2022-09-04T02:58:51;13.2;;;12.0;;
63953;SDS011;50128;52.094;5.232;2022-09-04T03:02:32;13.0;;;11.8;;
63953;SDS011;50128;52.094;5.232;2022-09-04T03:04:17;13.7;;;12.4;;
63953;SDS011;50128;52.094;5.232;2022-09-04T03:06:02;13.4;;;12.1;;
63953;SDS011;50128;52.094;5.232;2022-09-04T03:07:46;13.8;;;12.3;;
63953;SDS011;50128;52.094;5.232;2022-09-04T03:09:36;13.5;;;12.0;;
63953;SDS011;50128;52.094;5.232;2022-09-04T03:11:22;13.8;;;12.5;;
63953;SDS011;50128;52.094;5.232;2022-09-04T03:14:53;13.2;;;11.8;;
63953;SDS011;50128;52.094;5.232;2022-09-04T03:16:39;13.4;;;12.1;;
63953;SDS011;50128;52.094;5.232;2022-09-04T03:18:21;13.6;;;12.3;;
63953;SDS011;50128;52.094;5.232;2022-09-04T03:20:06;13.9;;;12.5;;
63953;SDS011;50128;52.094;5.232;2022-09-04T03:21:51;15.1;;;11.9;;
63953;SDS011;50128;52.094;5.232;2022-09-04T03:25:24;13.4;;;12.0;;
63953;SDS011;50128;52.094;5.232;2022-09-04T03:28:01;13.1;;;11.8;;
63953;SDS011;50128;52.094;5.232;2022-09-04T03:31:27;13.8;;;12.4;;
63953;SDS011;50128;52.094;5.232;2022-09-04T03:33:10;13.1;;;11.8;;
63953;SDS011;50128;52.094;5.232;2022-09-04T03:34:59;13.1;;;11.8;;
63953;SDS011;50128;52.094;5.232;2022-09-04T03:36:45;13.4;;;12.2;;
63953;SDS011;50128;52.094;5.232;2022-09-04T03:38:39;13.8;;;12.5;;
63953;SDS011;50128;52.094;5.232;2022-09-04T03:42:16;13.1;;;11.8;;
63953;SDS011;50128;52.094;5.232;2022-09-04T03:44:12;13.7;;;12.3;;
63953;SDS011;50128;52.094;5.232;2022-09-04T03:46:02;14.1;;;12.7;;
63953;SDS011;50128;52.094;5.232;2022-09-04T03:47:58;13.2;;;12.0;;
63953;SDS011;50128;52.094;5.232;2022-09-04T03:49:49;13.8;;;12.5;;
63953;SDS011;50128;52.094;5.232;2022-09-04T03:51:38;13.7;;;12.4;;
63953;SDS011;50128;52.094;5.232;2022-09-04T03:53:28;14.5;;;13.1;;
63953;SDS011;50128;52.094;5.232;2022-09-04T03:58:50;14.6;;;13.2;;
63953;SDS011;50128;52.094;5.232;2022-09-04T04:00:40;14.7;;;13.3;;
63953;SDS011;50128;52.094;5.232;2022-09-04T04:02:28;14.4;;;13.1;;
63953;SDS011;50128;52.094;5.232;2022-09-04T04:04:33;15.3;;;13.8;;
63953;SDS011;50128;52.094;5.232;2022-09-04T04:08:02;15.5;;;14.0;;
63953;SDS011;50128;52.094;5.232;2022-09-04T04:11:42;15.4;;;14.0;;
63953;SDS011;50128;52.094;5.232;2022-09-04T04:13:34;15.7;;;14.1;;
63953;SDS011;50128;52.094;5.232;2022-09-04T04:15:31;16.0;;;14.4;;
63953;SDS011;50128;52.094;5.232;2022-09-04T04:17:27;15.9;;;14.4;;
63953;SDS011;50128;52.094;5.232;2022-09-04T04:19:22;16.0;;;14.6;;
63953;SDS011;50128;52.094;5.232;2022-09-04T04:21:12;15.9;;;14.4;;
63953;SDS011;50128;52.094;5.232;2022-09-04T04:23:08;16.4;;;14.8;;
63953;SDS011;50128;52.094;5.232;2022-09-04T04:25:05;15.7;;;14.1;;
63953;SDS011;50128;52.094;5.232;2022-09-04T04:27:01;16.2;;;14.7;;
63953;SDS011;50128;52.094;5.232;2022-09-04T04:29:03;15.9;;;14.4;;
63953;SDS011;50128;52.094;5.232;2022-09-04T04:31:01;15.6;;;14.1;;
63953;SDS011;50128;52.094;5.232;2022-09-04T04:32:54;16.9;;;15.2;;
63953;SDS011;50128;52.094;5.232;2022-09-04T04:35:17;18.11;;;15.5;;
63953;SDS011;50128;52.094;5.232;2022-09-04T04:37:05;17.2;;;15.5;;
63953;SDS011;50128;52.094;5.232;2022-09-04T04:40:53;17.2;;;15.6;;
63953;SDS011;50128;52.094;5.232;2022-09-04T04:42:56;17.5;;;15.8;;
63953;SDS011;50128;52.094;5.232;2022-09-04T04:51:51;18.3;;;16.4;;
63953;SDS011;50128;52.094;5.232;2022-09-04T04:53:41;18.2;;;16.5;;
63953;SDS011;50128;52.094;5.232;2022-09-04T04:55:30;18.0;;;16.2;;
63953;SDS011;50128;52.094;5.232;2022-09-04T04:57:17;18.91;;;17.11;;
63953;SDS011;50128;52.094;5.232;2022-09-04T04:59:07;19.8;;;18.0;;
63953;SDS011;50128;52.094;5.232;2022-09-04T05:00:56;19.61;;;17.7;;
63953;SDS011;50128;52.094;5.232;2022-09-04T05:02:45;19.91;;;17.91;;
63953;SDS011;50128;52.094;5.232;2022-09-04T05:04:36;19.7;;;17.91;;
63953;SDS011;50128;52.094;5.232;2022-09-04T05:06:23;20.11;;;18.3;;
63953;SDS011;50128;52.094;5.232;2022-09-04T05:09:58;20.2;;;18.2;;
63953;SDS011;50128;52.094;5.232;2022-09-04T05:11:47;19.61;;;17.8;;
63953;SDS011;50128;52.094;5.232;2022-09-04T05:13:32;19.61;;;17.8;;
63953;SDS011;50128;52.094;5.232;2022-09-04T05:15:22;19.7;;;17.8;;
63953;SDS011;50128;52.094;5.232;2022-09-04T05:17:12;18.3;;;16.61;;
63953;SDS011;50128;52.094;5.232;2022-09-04T05:18:58;18.8;;;17.11;;
63953;SDS011;50128;52.094;5.232;2022-09-04T05:22:30;19.7;;;17.8;;
63953;SDS011;50128;52.094;5.232;2022-09-04T05:24:13;20.3;;;18.41;;
63953;SDS011;50128;52.094;5.232;2022-09-04T05:25:59;20.9;;;18.91;;
63953;SDS011;50128;52.094;5.232;2022-09-04T05:27:50;19.3;;;17.5;;
63953;SDS011;50128;52.094;5.232;2022-09-04T05:29:39;21.9;;;19.7;;
63953;SDS011;50128;52.094;5.232;2022-09-04T05:31:28;21.2;;;19.2;;
63953;SDS011;50128;52.094;5.232;2022-09-04T05:35:04;19.91;;;18.11;;
63953;SDS011;50128;52.094;5.232;2022-09-04T05:36:54;20.3;;;18.41;;
63953;SDS011;50128;52.094;5.232;2022-09-04T05:38:43;21.2;;;19.3;;
63953;SDS011;50128;52.094;5.232;2022-09-04T05:40:44;21.1;;;19.0;;
63953;SDS011;50128;52.094;5.232;2022-09-04T05:42:41;20.11;;;18.3;;
63953;SDS011;50128;52.094;5.232;2022-09-04T05:44:32;19.8;;;17.91;;
63953;SDS011;50128;52.094;5.232;2022-09-04T05:46:27;20.6;;;18.8;;
63953;SDS011;50128;52.094;5.232;2022-09-04T05:48:21;21.0;;;19.0;;
63953;SDS011;50128;52.094;5.232;2022-09-04T05:53:10;21.5;;;19.41;;
63953;SDS011;50128;52.094;5.232;2022-09-04T05:56:16;22.3;;;20.2;;
63953;SDS011;50128;52.094;5.232;2022-09-04T05:58:48;20.9;;;19.0;;
63953;SDS011;50128;52.094;5.232;2022-09-04T06:00:48;22.4;;;20.2;;
63953;SDS011;50128;52.094;5.232;2022-09-04T06:06:29;22.2;;;20.11;;
63953;SDS011;50128;52.094;5.232;2022-09-04T06:08:18;21.8;;;19.8;;
63953;SDS011;50128;52.094;5.232;2022-09-04T06:10:08;20.2;;;18.41;;
63953;SDS011;50128;52.094;5.232;2022-09-04T06:12:04;23.6;;;21.1;;
63953;SDS011;50128;52.094;5.232;2022-09-04T06:15:35;19.91;;;18.2;;
63953;SDS011;50128;52.094;5.232;2022-09-04T06:17:29;21.4;;;19.5;;
63953;SDS011;50128;52.094;5.232;2022-09-04T06:21:49;21.4;;;19.41;;
63953;SDS011;50128;52.094;5.232;2022-09-04T06:25:09;22.5;;;20.3;;
63953;SDS011;50128;52.094;5.232;2022-09-04T06:28:40;21.8;;;19.8;;
63953;SDS011;50128;52.094;5.232;2022-09-04T06:32:22;23.4;;;21.2;;
63953;SDS011;50128;52.094;5.232;2022-09-04T06:34:11;21.8;;;19.7;;
63953;SDS011;50128;52.094;5.232;2022-09-04T06:38:49;23.2;;;21.0;;
63953;SDS011;50128;52.094;5.232;2022-09-04T06:40:45;22.9;;;20.7;;
63953;SDS011;50128;52.094;5.232;2022-09-04T06:42:35;22.1;;;20.0;;
63953;SDS011;50128;52.094;5.232;2022-09-04T06:46:22;21.9;;;20.0;;
63953;SDS011;50128;52.094;5.232;2022-09-04T06:48:07;22.7;;;20.5;;
63953;SDS011;50128;52.094;5.232;2022-09-04T06:49:57;22.0;;;20.0;;
63953;SDS011;50128;52.094;5.232;2022-09-04T06:51:51;23.8;;;21.5;;
63953;SDS011;50128;52.094;5.232;2022-09-04T06:53:46;21.4;;;19.5;;
63953;SDS011;50128;52.094;5.232;2022-09-04T06:55:37;22.2;;;20.11;;
63953;SDS011;50128;52.094;5.232;2022-09-04T06:57:27;23.5;;;21.4;;
63953;SDS011;50128;52.094;5.232;2022-09-04T06:59:31;24.1;;;21.9;;
63953;SDS011;50128;52.094;5.232;2022-09-04T07:01:40;24.6;;;22.4;;
63953;SDS011;50128;52.094;5.232;2022-09-04T07:03:33;25.8;;;23.3;;
63953;SDS011;50128;52.094;5.232;2022-09-04T07:07:08;25.5;;;23.3;;
63953;SDS011;50128;52.094;5.232;2022-09-04T07:08:58;25.7;;;23.3;;
63953;SDS011;50128;52.094;5.232;2022-09-04T07:10:45;26.2;;;23.9;;
63953;SDS011;50128;52.094;5.232;2022-09-04T07:12:42;26.2;;;23.9;;
63953;SDS011;50128;52.094;5.232;2022-09-04T07:15:18;23.9;;;21.7;;
63953;SDS011;50128;52.094;5.232;2022-09-04T07:16:16;24.4;;;22.1;;
63953;SDS011;50128;52.094;5.232;2022-09-04T07:18:11;24.3;;;22.1;;
63953;SDS011;50128;52.094;5.232;2022-09-04T07:21:53;24.9;;;22.6;;
63953;SDS011;50128;52.094;5.232;2022-09-04T07:23:49;25.0;;;22.7;;
63953;SDS011;50128;52.094;5.232;2022-09-04T07:25:36;25.1;;;22.6;;
63953;SDS011;50128;52.094;5.232;2022-09-04T07:27:23;24.1;;;21.9;;
63953;SDS011;50128;52.094;5.232;2022-09-04T07:29:28;23.6;;;21.3;;
63953;SDS011;50128;52.094;5.232;2022-09-04T07:31:10;22.6;;;20.6;;
63953;SDS011;50128;52.094;5.232;2022-09-04T07:32:53;23.1;;;20.9;;
63953;SDS011;50128;52.094;5.232;2022-09-04T07:36:26;24.2;;;22.0;;
63953;SDS011;50128;52.094;5.232;2022-09-04T07:38:13;22.5;;;20.41;;
63953;SDS011;50128;52.094;5.232;2022-09-04T07:40:04;22.7;;;20.5;;
63953;SDS011;50128;52.094;5.232;2022-09-04T07:41:48;22.5;;;20.5;;
63953;SDS011;50128;52.094;5.232;2022-09-04T07:43:33;21.3;;;19.41;;
63953;SDS011;50128;52.094;5.232;2022-09-04T07:45:25;22.4;;;20.2;;
63953;SDS011;50128;52.094;5.232;2022-09-04T07:48:56;22.0;;;20.0;;
63953;SDS011;50128;52.094;5.232;2022-09-04T07:50:47;22.1;;;20.11;;
63953;SDS011;50128;52.094;5.232;2022-09-04T07:52:42;22.5;;;20.41;;
63953;SDS011;50128;52.094;5.232;2022-09-04T07:55:22;20.9;;;19.0;;
63953;SDS011;50128;52.094;5.232;2022-09-04T07:57:16;22.1;;;20.0;;
63953;SDS011;50128;52.094;5.232;2022-09-04T08:01:41;22.0;;;19.91;;
63953;SDS011;50128;52.094;5.232;2022-09-04T08:03:37;21.7;;;19.8;;
63953;SDS011;50128;52.094;5.232;2022-09-04T08:05:30;21.2;;;19.2;;
63953;SDS011;50128;52.094;5.232;2022-09-04T08:07:13;22.3;;;20.2;;
63953;SDS011;50128;52.094;5.232;2022-09-04T08:13:06;23.4;;;21.1;;
63953;SDS011;50128;52.094;5.232;2022-09-04T08:15:00;21.6;;;19.61;;
63953;SDS011;50128;52.094;5.232;2022-09-04T08:16:51;22.3;;;20.11;;
63953;SDS011;50128;52.094;5.232;2022-09-04T08:20:50;21.2;;;19.3;;
63953;SDS011;50128;52.094;5.232;2022-09-04T08:22:41;21.5;;;19.5;;
63953;SDS011;50128;52.094;5.232;2022-09-04T08:24:48;20.8;;;18.8;;
63953;SDS011;50128;52.094;5.232;2022-09-04T08:26:54;22.3;;;20.2;;
63953;SDS011;50128;52.094;5.232;2022-09-04T08:28:48;22.7;;;20.5;;
63953;SDS011;50128;52.094;5.232;2022-09-04T08:30:38;20.8;;;18.91;;
63953;SDS011;50128;52.094;5.232;2022-09-04T08:32:28;21.0;;;19.0;;
63953;SDS011;50128;52.094;5.232;2022-09-04T08:35:16;20.2;;;18.3;;
63953;SDS011;50128;52.094;5.232;2022-09-04T08:37:28;20.8;;;18.91;;
63953;SDS011;50128;52.094;5.232;2022-09-04T08:39:17;20.5;;;18.5;;
63953;SDS011;50128;52.094;5.232;2022-09-04T08:41:13;20.7;;;18.7;;
63953;SDS011;50128;52.094;5.232;2022-09-04T08:45:19;22.3;;;20.11;;
63953;SDS011;50128;52.094;5.232;2022-09-04T08:49:53;21.2;;;19.0;;
63953;SDS011;50128;52.094;5.232;2022-09-04T08:52:46;23.2;;;20.9;;
63953;SDS011;50128;52.094;5.232;2022-09-04T08:55:30;22.2;;;20.0;;
63953;SDS011;50128;52.094;5.232;2022-09-04T08:58:03;22.3;;;20.41;;
63953;SDS011;50128;52.094;5.232;2022-09-04T09:01:40;21.0;;;18.91;;
63953;SDS011;50128;52.094;5.232;2022-09-04T09:04:17;21.7;;;19.61;;
63953;SDS011;50128;52.094;5.232;2022-09-04T09:06:40;21.7;;;19.7;;
63953;SDS011;50128;52.094;5.232;2022-09-04T09:09:54;21.3;;;19.3;;
63953;SDS011;50128;52.094;5.232;2022-09-04T09:13:02;21.2;;;19.11;;
63953;SDS011;50128;52.094;5.232;2022-09-04T09:16:35;20.41;;;18.5;;
63953;SDS011;50128;52.094;5.232;2022-09-04T09:18:28;20.8;;;18.8;;
63953;SDS011;50128;52.094;5.232;2022-09-04T09:20:19;18.3;;;16.5;;
63953;SDS011;50128;52.094;5.232;2022-09-04T09:22:07;18.41;;;16.7;;
63953;SDS011;50128;52.094;5.232;2022-09-04T09:24:52;20.0;;;18.0;;
63953;SDS011;50128;52.094;5.232;2022-09-04T09:27:14;20.5;;;18.5;;
63953;SDS011;50128;52.094;5.232;2022-09-04T09:29:20;19.11;;;17.3;;
63953;SDS011;50128;52.094;5.232;2022-09-04T09:31:32;20.11;;;18.11;;
63953;SDS011;50128;52.094;5.232;2022-09-04T09:35:03;19.41;;;17.5;;
63953;SDS011;50128;52.094;5.232;2022-09-04T09:38:53;17.91;;;16.0;;
63953;SDS011;50128;52.094;5.232;2022-09-04T09:46:07;17.2;;;15.5;;
63953;SDS011;50128;52.094;5.232;2022-09-04T09:48:31;17.0;;;15.2;;
63953;SDS011;50128;52.094;5.232;2022-09-04T09:52:13;18.2;;;16.5;;
63953;SDS011;50128;52.094;5.232;2022-09-04T09:54:53;16.11;;;14.4;;
63953;SDS011;50128;52.094;5.232;2022-09-04T09:58:13;15.7;;;13.8;;
63953;SDS011;50128;52.094;5.232;2022-09-04T10:01:06;13.6;;;12.2;;
63953;SDS011;50128;52.094;5.232;2022-09-04T10:06:34;12.9;;;11.6;;
63953;SDS011;50128;52.094;5.232;2022-09-04T10:09:40;14.4;;;13.0;;
63953;SDS011;50128;52.094;5.232;2022-09-04T10:11:46;14.5;;;13.0;;
63953;SDS011;50128;52.094;5.232;2022-09-04T10:15:15;12.4;;;11.2;;
63953;SDS011;50128;52.094;5.232;2022-09-04T10:20:00;12.7;;;11.4;;
63953;SDS011;50128;52.094;5.232;2022-09-04T10:22:20;14.7;;;13.1;;
63953;SDS011;50128;52.094;5.232;2022-09-04T10:28:44;11.4;;;10.21;;
63953;SDS011;50128;52.094;5.232;2022-09-04T10:31:46;11.6;;;10.21;;
63953;SDS011;50128;52.094;5.232;2022-09-04T10:34:27;10.8;;;9.4;;
63953;SDS011;50128;52.094;5.232;2022-09-04T10:36:21;10.21;;;9.1;;
63953;SDS011;50128;52.094;5.232;2022-09-04T10:38:20;9.9;;;8.31;;
63953;SDS011;50128;52.094;5.232;2022-09-04T10:40:41;9.4;;;8.4;;
63953;SDS011;50128;52.094;5.232;2022-09-04T10:42:31;10.6;;;9.4;;
63953;SDS011;50128;52.094;5.232;2022-09-04T10:44:25;9.0;;;8.1;;
63953;SDS011;50128;52.094;5.232;2022-09-04T10:46:44;9.21;;;7.4;;
63953;SDS011;50128;52.094;5.232;2022-09-04T10:48:39;9.4;;;8.5;;
63953;SDS011;50128;52.094;5.232;2022-09-04T10:50:45;8.81;;;7.9;;
63953;SDS011;50128;52.094;5.232;2022-09-04T10:53:06;9.6;;;7.0;;
63953;SDS011;50128;52.094;5.232;2022-09-04T10:55:29;8.9;;;6.7;;
63953;SDS011;50128;52.094;5.232;2022-09-04T10:58:06;10.6;;;8.4;;
63953;SDS011;50128;52.094;5.232;2022-09-04T11:00:00;7.0;;;5.9;;
63953;SDS011;50128;52.094;5.232;2022-09-04T11:05:03;8.1;;;7.1;;
63953;SDS011;50128;52.094;5.232;2022-09-04T11:07:58;8.6;;;6.7;;
63953;SDS011;50128;52.094;5.232;2022-09-04T11:11:32;7.2;;;6.1;;
63953;SDS011;50128;52.094;5.232;2022-09-04T11:13:51;7.1;;;6.1;;
63953;SDS011;50128;52.094;5.232;2022-09-04T11:16:44;6.2;;;4.41;;
63953;SDS011;50128;52.094;5.232;2022-09-04T11:20:12;7.0;;;5.8;;
63953;SDS011;50128;52.094;5.232;2022-09-04T11:22:21;6.1;;;5.2;;
63953;SDS011;50128;52.094;5.232;2022-09-04T11:26:59;6.4;;;4.5;;
63953;SDS011;50128;52.094;5.232;2022-09-04T11:30:26;5.3;;;4.0;;
63953;SDS011;50128;52.094;5.232;2022-09-04T11:33:29;4.91;;;3.7;;
63953;SDS011;50128;52.094;5.232;2022-09-04T11:36:00;6.3;;;4.0;;
63953;SDS011;50128;52.094;5.232;2022-09-04T11:39:37;5.3;;;4.3;;
63953;SDS011;50128;52.094;5.232;2022-09-04T11:43:27;5.11;;;3.9;;
63953;SDS011;50128;52.094;5.232;2022-09-04T11:46:48;7.1;;;4.41;;
63953;SDS011;50128;52.094;5.232;2022-09-04T11:48:23;5.4;;;3.3;;
63953;SDS011;50128;52.094;5.232;2022-09-04T11:49:19;5.4;;;3.3;;
63953;SDS011;50128;52.094;5.232;2022-09-04T11:50:26;4.41;;;2.9;;
63953;SDS011;50128;52.094;5.232;2022-09-04T11:52:23;4.5;;;2.7;;
63953;SDS011;50128;52.094;5.232;2022-09-04T11:57:01;6.3;;;3.9;;
63953;SDS011;50128;52.094;5.232;2022-09-04T11:58:54;4.7;;;3.1;;
63953;SDS011;50128;52.094;5.232;2022-09-04T12:00:58;5.6;;;3.5;;
63953;SDS011;50128;52.094;5.232;2022-09-04T12:02:59;4.2;;;2.8;;
63953;SDS011;50128;52.094;5.232;2022-09-04T12:06:38;5.6;;;3.1;;
63953;SDS011;50128;52.094;5.232;2022-09-04T12:08:34;4.2;;;2.9;;
63953;SDS011;50128;52.094;5.232;2022-09-04T12:11:09;5.5;;;3.3;;
63953;SDS011;50128;52.094;5.232;2022-09-04T12:13:25;4.0;;;2.5;;
63953;SDS011;50128;52.094;5.232;2022-09-04T12:15:41;5.4;;;2.8;;
63953;SDS011;50128;52.094;5.232;2022-09-04T12:19:12;4.8;;;2.7;;
63953;SDS011;50128;52.094;5.232;2022-09-04T12:22:05;6.1;;;3.0;;
63953;SDS011;50128;52.094;5.232;2022-09-04T12:25:31;5.6;;;2.7;;
63953;SDS011;50128;52.094;5.232;2022-09-04T12:28:21;3.9;;;2.5;;
63953;SDS011;50128;52.094;5.232;2022-09-04T12:30:17;4.41;;;2.7;;
63953;SDS011;50128;52.094;5.232;2022-09-04T12:32:02;4.91;;;3.5;;
63953;SDS011;50128;52.094;5.232;2022-09-04T12:35:16;4.61;;;2.9;;
63953;SDS011;50128;52.094;5.232;2022-09-04T12:39:13;4.3;;;3.1;;
63953;SDS011;50128;52.094;5.232;2022-09-04T12:42:43;4.8;;;3.0;;
63953;SDS011;50128;52.094;5.232;2022-09-04T12:44:32;5.0;;;2.9;;
63953;SDS011;50128;52.094;5.232;2022-09-04T12:48:19;4.8;;;2.5;;
63953;SDS011;50128;52.094;5.232;2022-09-04T12:50:14;5.0;;;2.6;;
63953;SDS011;50128;52.094;5.232;2022-09-04T12:52:02;4.1;;;2.7;;
63953;SDS011;50128;52.094;5.232;2022-09-04T12:53:57;4.0;;;2.5;;
63953;SDS011;50128;52.094;5.232;2022-09-04T12:55:47;3.8;;;2.5;;
63953;SDS011;50128;52.094;5.232;2022-09-04T12:57:36;5.5;;;2.7;;
63953;SDS011;50128;52.094;5.232;2022-09-04T12:59:27;4.3;;;2.7;;
63953;SDS011;50128;52.094;5.232;2022-09-04T13:01:20;3.9;;;2.5;;
63953;SDS011;50128;52.094;5.232;2022-09-04T13:04:56;6.2;;;3.0;;
63953;SDS011;50128;52.094;5.232;2022-09-04T13:06:47;4.41;;;2.5;;
63953;SDS011;50128;52.094;5.232;2022-09-04T13:08:43;3.9;;;2.21;;
63953;SDS011;50128;52.094;5.232;2022-09-04T13:10:34;5.0;;;2.7;;
63953;SDS011;50128;52.094;5.232;2022-09-04T13:12:23;3.2;;;1.8;;
63953;SDS011;50128;52.094;5.232;2022-09-04T13:14:14;4.3;;;2.21;;
63953;SDS011;50128;52.094;5.232;2022-09-04T13:16:15;4.5;;;2.4;;
63953;SDS011;50128;52.094;5.232;2022-09-04T13:18:05;4.0;;;2.1;;
63953;SDS011;50128;52.094;5.232;2022-09-04T13:21:55;4.61;;;2.31;;
63953;SDS011;50128;52.094;5.232;2022-09-04T13:23:47;3.5;;;2.1;;
63953;SDS011;50128;52.094;5.232;2022-09-04T13:25:40;5.4;;;2.4;;
63953;SDS011;50128;52.094;5.232;2022-09-04T13:27:32;3.6;;;2.0;;
63953;SDS011;50128;52.094;5.232;2022-09-04T13:29:25;3.5;;;1.8;;
63953;SDS011;50128;52.094;5.232;2022-09-04T13:31:22;3.3;;;2.0;;
63953;SDS011;50128;52.094;5.232;2022-09-04T13:33:19;4.2;;;2.1;;
63953;SDS011;50128;52.094;5.232;2022-09-04T13:35:11;3.6;;;1.8;;
63953;SDS011;50128;52.094;5.232;2022-09-04T13:37:00;4.1;;;2.0;;
63953;SDS011;50128;52.094;5.232;2022-09-04T13:42:07;4.1;;;2.0;;
63953;SDS011;50128;52.094;5.232;2022-09-04T13:45:37;5.0;;;2.1;;
63953;SDS011;50128;52.094;5.232;2022-09-04T13:47:20;3.9;;;2.5;;
63953;SDS011;50128;52.094;5.232;2022-09-04T13:50:42;3.4;;;2.0;;
63953;SDS011;50128;52.094;5.232;2022-09-04T13:52:28;4.7;;;2.4;;
63953;SDS011;50128;52.094;5.232;2022-09-04T13:54:15;3.2;;;2.0;;
63953;SDS011;50128;52.094;5.232;2022-09-04T13:55:58;3.8;;;2.0;;
63953;SDS011;50128;52.094;5.232;2022-09-04T13:57:41;3.6;;;2.0;;
63953;SDS011;50128;52.094;5.232;2022-09-04T14:01:00;2.9;;;1.7;;
63953;SDS011;50128;52.094;5.232;2022-09-04T14:02:44;3.5;;;1.9;;
63953;SDS011;50128;52.094;5.232;2022-09-04T14:04:26;5.5;;;2.21;;
63953;SDS011;50128;52.094;5.232;2022-09-04T14:06:09;3.7;;;1.9;;
63953;SDS011;50128;52.094;5.232;2022-09-04T14:09:36;2.9;;;1.9;;
63953;SDS011;50128;52.094;5.232;2022-09-04T14:11:21;3.8;;;2.21;;
63953;SDS011;50128;52.094;5.232;2022-09-04T14:13:34;5.6;;;2.21;;
63953;SDS011;50128;52.094;5.232;2022-09-04T14:15:40;4.5;;;2.0;;
63953;SDS011;50128;52.094;5.232;2022-09-04T14:17:39;4.2;;;2.0;;
63953;SDS011;50128;52.094;5.232;2022-09-04T14:19:33;3.9;;;2.0;;
63953;SDS011;50128;52.094;5.232;2022-09-04T14:21:28;3.5;;;1.9;;
63953;SDS011;50128;52.094;5.232;2022-09-04T14:23:20;3.8;;;1.8;;
63953;SDS011;50128;52.094;5.232;2022-09-04T14:25:09;3.8;;;2.0;;
63953;SDS011;50128;52.094;5.232;2022-09-04T14:28:44;3.7;;;1.7;;
63953;SDS011;50128;52.094;5.232;2022-09-04T14:30:28;4.7;;;2.0;;
63953;SDS011;50128;52.094;5.232;2022-09-04T14:32:14;4.1;;;1.9;;
63953;SDS011;50128;52.094;5.232;2022-09-04T14:34:02;4.41;;;1.7;;